sensor_id;sensor_type;location;lat;lon;timestamp;pressure;altitude;pressure_sealevel;temperature;humidity
65756;BME280;69208;47.502;18.940;2023-09-30T00:00:23;98673.84;;;15.79;76.26
65756;BME280;69208;47.502;18.940;2023-09-30T00:01:27;98669.66;;;15.61;75.94
65756;BME280;69208;47.502;18.940;2023-09-30T00:02:30;98670.59;;;15.56;76.11
65756;BME280;69208;47.502;18.940;2023-09-30T00:03:33;98669.03;;;15.64;76.02
65756;BME280;69208;47.502;18.940;2023-09-30T00:04:37;98668.59;;;15.53;76.44
65756;BME280;69208;47.502;18.940;2023-09-30T00:05:40;98665.47;;;15.51;77.17
65756;BME280;69208;47.502;18.940;2023-09-30T00:06:43;98654.00;;;15.47;77.77
65756;BME280;69208;47.502;18.940;2023-09-30T00:07:46;98667.00;;;15.43;78.87
65756;BME280;69208;47.502;18.940;2023-09-30T00:08:49;98667.50;;;15.45;78.74
65756;BME280;69208;47.502;18.940;2023-09-30T00:09:53;98670.75;;;15.42;79.04
65756;BME280;69208;47.502;18.940;2023-09-30T00:10:56;98666.56;;;15.33;79.40
65756;BME280;69208;47.502;18.940;2023-09-30T00:11:59;98667.81;;;15.35;79.45
65756;BME280;69208;47.502;18.940;2023-09-30T00:13:02;98669.81;;;15.30;79.70
65756;BME280;69208;47.502;18.940;2023-09-30T00:14:05;98664.53;;;15.21;80.22
65756;BME280;69208;47.502;18.940;2023-09-30T00:15:09;98664.97;;;15.23;80.29
65756;BME280;69208;47.502;18.940;2023-09-30T00:16:12;98662.06;;;15.33;79.68
65756;BME280;69208;47.502;18.940;2023-09-30T00:17:15;98659.72;;;15.40;78.57
65756;BME280;69208;47.502;18.940;2023-09-30T00:18:18;98662.34;;;15.40;78.60
65756;BME280;69208;47.502;18.940;2023-09-30T00:19:21;98667.97;;;15.30;79.37
65756;BME280;69208;47.502;18.940;2023-09-30T00:20:28;98657.41;;;15.30;79.30
65756;BME280;69208;47.502;18.940;2023-09-30T00:21:31;98664.53;;;15.30;79.35
65756;BME280;69208;47.502;18.940;2023-09-30T00:22:34;98650.25;;;15.31;80.12
65756;BME280;69208;47.502;18.940;2023-09-30T00:23:38;98657.25;;;15.27;80.38
65756;BME280;69208;47.502;18.940;2023-09-30T00:24:41;98653.97;;;15.21;79.86
65756;BME280;69208;47.502;18.940;2023-09-30T00:25:44;98653.50;;;15.19;80.38
65756;BME280;69208;47.502;18.940;2023-09-30T00:26:47;98659.87;;;15.18;80.18
65756;BME280;69208;47.502;18.940;2023-09-30T00:27:50;98652.41;;;15.20;79.20
65756;BME280;69208;47.502;18.940;2023-09-30T00:28:53;98653.34;;;15.15;79.04
65756;BME280;69208;47.502;18.940;2023-09-30T00:29:56;98655.97;;;15.07;79.57
65756;BME280;69208;47.502;18.940;2023-09-30T00:30:59;98651.34;;;15.21;79.24
65756;BME280;69208;47.502;18.940;2023-09-30T00:32:03;98655.53;;;15.22;79.06
65756;BME280;69208;47.502;18.940;2023-09-30T00:33:06;98650.88;;;15.19;80.11
65756;BME280;69208;47.502;18.940;2023-09-30T00:34:09;98657.25;;;15.18;80.55
65756;BME280;69208;47.502;18.940;2023-09-30T00:35:12;98651.63;;;15.19;80.74
65756;BME280;69208;47.502;18.940;2023-09-30T00:36:15;98651.78;;;15.14;81.30
65756;BME280;69208;47.502;18.940;2023-09-30T00:37:19;98648.69;;;15.12;81.28
65756;BME280;69208;47.502;18.940;2023-09-30T00:38:22;98649.78;;;15.20;80.41
65756;BME280;69208;47.502;18.940;2023-09-30T00:39:26;98652.75;;;15.27;79.06
65756;BME280;69208;47.502;18.940;2023-09-30T00:40:33;98641.84;;;15.29;78.72
65756;BME280;69208;47.502;18.940;2023-09-30T00:41:41;98646.50;;;15.32;78.91
65756;BME280;69208;47.502;18.940;2023-09-30T00:42:43;98643.09;;;15.40;77.53
65756;BME280;69208;47.502;18.940;2023-09-30T00:43:47;98642.81;;;15.33;78.92
65756;BME280;69208;47.502;18.940;2023-09-30T00:44:50;98644.19;;;15.30;79.82
65756;BME280;69208;47.502;18.940;2023-09-30T00:46:02;98643.44;;;15.30;80.34
65756;BME280;69208;47.502;18.940;2023-09-30T00:47:06;98644.50;;;15.29;80.38
65756;BME280;69208;47.502;18.940;2023-09-30T00:48:11;98641.84;;;15.29;80.63
65756;BME280;69208;47.502;18.940;2023-09-30T00:49:14;98647.59;;;15.22;80.95
65756;BME280;69208;47.502;18.940;2023-09-30T00:50:19;98640.31;;;15.19;81.33
65756;BME280;69208;47.502;18.940;2023-09-30T00:51:24;98640.00;;;15.20;80.88
65756;BME280;69208;47.502;18.940;2023-09-30T00:52:27;98638.16;;;15.30;80.57
65756;BME280;69208;47.502;18.940;2023-09-30T00:53:31;98645.75;;;15.31;80.13
65756;BME280;69208;47.502;18.940;2023-09-30T00:54:34;98640.94;;;15.24;80.06
65756;BME280;69208;47.502;18.940;2023-09-30T00:55:38;98643.56;;;15.24;79.90
65756;BME280;69208;47.502;18.940;2023-09-30T00:56:45;98641.09;;;15.28;79.33
65756;BME280;69208;47.502;18.940;2023-09-30T00:57:49;98641.56;;;15.30;79.27
65756;BME280;69208;47.502;18.940;2023-09-30T00:58:53;98634.13;;;15.32;78.60
65756;BME280;69208;47.502;18.940;2023-09-30T00:59:57;98636.28;;;15.30;78.88
65756;BME280;69208;47.502;18.940;2023-09-30T01:01:00;98639.69;;;15.31;79.74
65756;BME280;69208;47.502;18.940;2023-09-30T01:02:04;98636.28;;;15.30;80.17
65756;BME280;69208;47.502;18.940;2023-09-30T01:03:09;98635.50;;;15.30;80.42
65756;BME280;69208;47.502;18.940;2023-09-30T01:04:14;98642.03;;;15.32;79.54
65756;BME280;69208;47.502;18.940;2023-09-30T01:05:18;98642.03;;;15.32;78.86
65756;BME280;69208;47.502;18.940;2023-09-30T01:06:22;98630.38;;;15.33;79.27
65756;BME280;69208;47.502;18.940;2023-09-30T01:07:24;98637.81;;;15.31;79.99
65756;BME280;69208;47.502;18.940;2023-09-30T01:08:27;98636.13;;;15.27;80.21
65756;BME280;69208;47.502;18.940;2023-09-30T01:09:30;98637.53;;;15.24;79.99
65756;BME280;69208;47.502;18.940;2023-09-30T01:10:34;98636.28;;;15.21;80.38
65756;BME280;69208;47.502;18.940;2023-09-30T01:11:37;98632.25;;;15.15;80.99
65756;BME280;69208;47.502;18.940;2023-09-30T01:12:40;98638.59;;;15.14;81.06
65756;BME280;69208;47.502;18.940;2023-09-30T01:13:42;98635.66;;;15.07;81.30
65756;BME280;69208;47.502;18.940;2023-09-30T01:14:48;98633.16;;;15.11;80.91
65756;BME280;69208;47.502;18.940;2023-09-30T01:15:51;98634.41;;;15.13;80.57
65756;BME280;69208;47.502;18.940;2023-09-30T01:16:54;98639.84;;;15.17;80.34
65756;BME280;69208;47.502;18.940;2023-09-30T01:17:57;98631.47;;;15.15;80.21
65756;BME280;69208;47.502;18.940;2023-09-30T01:19:00;98638.28;;;15.16;80.56
65756;BME280;69208;47.502;18.940;2023-09-30T01:20:03;98633.62;;;15.21;80.50
65756;BME280;69208;47.502;18.940;2023-09-30T01:21:09;98632.72;;;15.17;80.68
65756;BME280;69208;47.502;18.940;2023-09-30T01:22:13;98635.50;;;15.12;80.67
65756;BME280;69208;47.502;18.940;2023-09-30T01:23:16;98634.41;;;15.13;79.55
65756;BME280;69208;47.502;18.940;2023-09-30T01:24:20;98638.59;;;15.14;79.13
65756;BME280;69208;47.502;18.940;2023-09-30T01:25:24;98634.41;;;15.13;79.26
65756;BME280;69208;47.502;18.940;2023-09-30T01:26:27;98632.72;;;15.17;79.10
65756;BME280;69208;47.502;18.940;2023-09-30T01:27:30;98635.03;;;15.19;79.36
65756;BME280;69208;47.502;18.940;2023-09-30T01:28:33;98633.78;;;15.16;79.61
65756;BME280;69208;47.502;18.940;2023-09-30T01:29:36;98641.41;;;15.18;79.79
65756;BME280;69208;47.502;18.940;2023-09-30T01:30:42;98628.84;;;15.15;80.16
65756;BME280;69208;47.502;18.940;2023-09-30T01:31:48;98635.19;;;15.14;80.30
65756;BME280;69208;47.502;18.940;2023-09-30T01:32:52;98637.50;;;15.07;80.75
65756;BME280;69208;47.502;18.940;2023-09-30T01:33:56;98643.56;;;15.07;80.78
65756;BME280;69208;47.502;18.940;2023-09-30T01:34:59;98641.56;;;15.13;80.57
65756;BME280;69208;47.502;18.940;2023-09-30T01:36:02;98636.91;;;15.18;80.44
65756;BME280;69208;47.502;18.940;2023-09-30T01:37:06;98641.56;;;15.13;80.72
65756;BME280;69208;47.502;18.940;2023-09-30T01:38:09;98644.97;;;15.13;80.76
65756;BME280;69208;47.502;18.940;2023-09-30T01:39:12;98634.41;;;15.13;80.79
65756;BME280;69208;47.502;18.940;2023-09-30T01:40:15;98633.62;;;15.13;80.82
65756;BME280;69208;47.502;18.940;2023-09-30T01:41:20;98640.62;;;15.09;80.98
65756;BME280;69208;47.502;18.940;2023-09-30T01:42:23;98637.78;;;14.96;81.57
65756;BME280;69208;47.502;18.940;2023-09-30T01:43:27;98631.75;;;14.96;81.58
65756;BME280;69208;47.502;18.940;2023-09-30T01:44:31;98635.78;;;14.93;81.69
65756;BME280;69208;47.502;18.940;2023-09-30T01:45:35;98632.06;;;14.94;81.65
65756;BME280;69208;47.502;18.940;2023-09-30T01:46:38;98631.59;;;15.01;81.25
65756;BME280;69208;47.502;18.940;2023-09-30T01:47:41;98634.41;;;15.05;81.19
65756;BME280;69208;47.502;18.940;2023-09-30T01:48:44;98639.53;;;15.01;81.13
65756;BME280;69208;47.502;18.940;2023-09-30T01:49:47;98634.09;;;14.97;81.31
65756;BME280;69208;47.502;18.940;2023-09-30T01:50:50;98632.38;;;15.01;80.98
65756;BME280;69208;47.502;18.940;2023-09-30T01:51:53;98639.22;;;14.94;80.69
65756;BME280;69208;47.502;18.940;2023-09-30T01:52:56;98638.25;;;14.90;80.94
65756;BME280;69208;47.502;18.940;2023-09-30T01:53:59;98632.50;;;14.88;80.87
65756;BME280;69208;47.502;18.940;2023-09-30T01:55:02;98635.78;;;14.93;80.65
65756;BME280;69208;47.502;18.940;2023-09-30T01:56:06;98630.34;;;14.90;81.03
65756;BME280;69208;47.502;18.940;2023-09-30T01:57:08;98622.13;;;14.83;81.59
65756;BME280;69208;47.502;18.940;2023-09-30T01:58:12;98632.50;;;14.88;81.28
65756;BME280;69208;47.502;18.940;2023-09-30T01:59:15;98633.59;;;14.87;81.41
65756;BME280;69208;47.502;18.940;2023-09-30T02:00:19;98628.94;;;14.84;81.48
65756;BME280;69208;47.502;18.940;2023-09-30T02:01:22;98624.44;;;14.84;81.52
65756;BME280;69208;47.502;18.940;2023-09-30T02:02:25;98633.12;;;14.85;81.52
65756;BME280;69208;47.502;18.940;2023-09-30T02:03:29;98628.47;;;14.82;81.65
65756;BME280;69208;47.502;18.940;2023-09-30T02:04:32;98624.75;;;14.83;81.52
65756;BME280;69208;47.502;18.940;2023-09-30T02:05:35;98629.06;;;14.78;81.74
65756;BME280;69208;47.502;18.940;2023-09-30T02:06:39;98625.22;;;14.85;81.59
65756;BME280;69208;47.502;18.940;2023-09-30T02:07:42;98629.09;;;14.87;81.56
65756;BME280;69208;47.502;18.940;2023-09-30T02:08:46;98630.81;;;14.83;81.91
65756;BME280;69208;47.502;18.940;2023-09-30T02:09:49;98624.28;;;14.81;82.23
65756;BME280;69208;47.502;18.940;2023-09-30T02:10:52;98625.81;;;14.73;82.66
65756;BME280;69208;47.502;18.940;2023-09-30T02:11:54;98624.25;;;14.72;82.80
65756;BME280;69208;47.502;18.940;2023-09-30T02:12:58;98630.16;;;14.69;82.75
65756;BME280;69208;47.502;18.940;2023-09-30T02:14:02;98627.53;;;14.77;82.26
65756;BME280;69208;47.502;18.940;2023-09-30T02:15:06;98630.78;;;14.74;82.32
65756;BME280;69208;47.502;18.940;2023-09-30T02:16:13;98634.19;;;14.66;82.97
65756;BME280;69208;47.502;18.940;2023-09-30T02:17:16;98625.66;;;14.69;82.64
65756;BME280;69208;47.502;18.940;2023-09-30T02:18:19;98625.94;;;14.59;82.40
65756;BME280;69208;47.502;18.940;2023-09-30T02:19:22;98629.37;;;14.68;82.20
65756;BME280;69208;47.502;18.940;2023-09-30T02:20:25;98623.34;;;14.76;81.55
65756;BME280;69208;47.502;18.940;2023-09-30T02:21:32;98625.66;;;14.69;81.94
65756;BME280;69208;47.502;18.940;2023-09-30T02:22:35;98629.84;;;14.70;82.01
65756;BME280;69208;47.502;18.940;2023-09-30T02:23:39;98628.28;;;14.69;81.58
65756;BME280;69208;47.502;18.940;2023-09-30T02:24:42;98626.28;;;14.75;81.44
65756;BME280;69208;47.502;18.940;2023-09-30T02:25:45;98630.94;;;14.78;81.35
65756;BME280;69208;47.502;18.940;2023-09-30T02:26:48;98623.81;;;14.78;81.31
65756;BME280;69208;47.502;18.940;2023-09-30T02:27:51;98624.91;;;14.77;81.53
65756;BME280;69208;47.502;18.940;2023-09-30T02:28:54;98621.66;;;14.81;81.70
65756;BME280;69208;47.502;18.940;2023-09-30T02:29:57;98624.41;;;14.75;81.83
65756;BME280;69208;47.502;18.940;2023-09-30T02:31:00;98618.53;;;14.78;81.95
65756;BME280;69208;47.502;18.940;2023-09-30T02:32:03;98620.09;;;14.79;81.75
65756;BME280;69208;47.502;18.940;2023-09-30T02:33:06;98621.34;;;14.82;81.61
65756;BME280;69208;47.502;18.940;2023-09-30T02:34:10;98618.25;;;14.80;81.62
65756;BME280;69208;47.502;18.940;2023-09-30T02:35:13;98617.59;;;14.74;82.22
65756;BME280;69208;47.502;18.940;2023-09-30T02:36:18;98610.78;;;14.73;82.30
65756;BME280;69208;47.502;18.940;2023-09-30T02:37:21;98616.97;;;14.69;82.57
65756;BME280;69208;47.502;18.940;2023-09-30T02:38:24;98621.47;;;14.68;82.62
65756;BME280;69208;47.502;18.940;2023-09-30T02:39:27;98615.72;;;14.66;82.70
65756;BME280;69208;47.502;18.940;2023-09-30T02:40:30;98613.84;;;14.67;81.75
65756;BME280;69208;47.502;18.940;2023-09-30T02:41:33;98619.75;;;14.64;81.48
65756;BME280;69208;47.502;18.940;2023-09-30T02:42:40;98621.00;;;14.66;81.96
65756;BME280;69208;47.502;18.940;2023-09-30T02:43:43;98615.44;;;14.68;82.05
65756;BME280;69208;47.502;18.940;2023-09-30T02:44:46;98615.28;;;14.64;82.48
65756;BME280;69208;47.502;18.940;2023-09-30T02:45:49;98619.75;;;14.64;82.74
65756;BME280;69208;47.502;18.940;2023-09-30T02:46:53;98617.28;;;14.59;82.90
65756;BME280;69208;47.502;18.940;2023-09-30T02:47:56;98618.03;;;14.59;82.38
65756;BME280;69208;47.502;18.940;2023-09-30T02:49:01;98619.09;;;14.58;82.43
65756;BME280;69208;47.502;18.940;2023-09-30T02:50:06;98621.94;;;14.62;82.40
65756;BME280;69208;47.502;18.940;2023-09-30T02:51:11;98621.94;;;14.62;82.11
65756;BME280;69208;47.502;18.940;2023-09-30T02:52:14;98620.53;;;14.64;82.10
65756;BME280;69208;47.502;18.940;2023-09-30T02:53:17;98620.53;;;14.64;82.18
65756;BME280;69208;47.502;18.940;2023-09-30T02:54:20;98623.34;;;14.68;82.08
65756;BME280;69208;47.502;18.940;2023-09-30T02:55:23;98625.66;;;14.69;81.87
65756;BME280;69208;47.502;18.940;2023-09-30T02:56:26;98621.16;;;14.61;82.08
65756;BME280;69208;47.502;18.940;2023-09-30T02:57:31;98625.34;;;14.62;82.21
65756;BME280;69208;47.502;18.940;2023-09-30T02:58:34;98624.25;;;14.63;82.19
65756;BME280;69208;47.502;18.940;2023-09-30T02:59:37;98623.94;;;14.65;81.85
65756;BME280;69208;47.502;18.940;2023-09-30T03:00:40;98625.00;;;14.64;81.38
65756;BME280;69208;47.502;18.940;2023-09-30T03:01:43;98623.78;;;14.61;80.66
65756;BME280;69208;47.502;18.940;2023-09-30T03:02:47;98625.00;;;14.64;80.63
65756;BME280;69208;47.502;18.940;2023-09-30T03:03:50;98614.31;;;14.60;80.49
65756;BME280;69208;47.502;18.940;2023-09-30T03:04:53;98618.84;;;14.68;80.42
65756;BME280;69208;47.502;18.940;2023-09-30T03:05:56;98619.31;;;14.70;81.04
65756;BME280;69208;47.502;18.940;2023-09-30T03:07:00;98620.38;;;14.69;81.75
65756;BME280;69208;47.502;18.940;2023-09-30T03:08:04;98622.41;;;14.72;81.77
65756;BME280;69208;47.502;18.940;2023-09-30T03:09:07;98625.50;;;14.74;82.17
65756;BME280;69208;47.502;18.940;2023-09-30T03:10:12;98627.84;;;14.76;82.68
65756;BME280;69208;47.502;18.940;2023-09-30T03:11:23;98623.97;;;14.73;83.16
65756;BME280;69208;47.502;18.940;2023-09-30T03:12:26;98624.09;;;14.68;83.53
65756;BME280;69208;47.502;18.940;2023-09-30T03:13:30;98623.78;;;14.70;82.70
65756;BME280;69208;47.502;18.940;2023-09-30T03:14:33;98617.44;;;14.62;83.12
65756;BME280;69208;47.502;18.940;2023-09-30T03:15:36;98623.31;;;14.59;83.47
65756;BME280;69208;47.502;18.940;2023-09-30T03:16:41;98628.72;;;14.54;83.83
65756;BME280;69208;47.502;18.940;2023-09-30T03:17:47;98629.31;;;14.51;84.10
65756;BME280;69208;47.502;18.940;2023-09-30T03:18:55;98624.84;;;14.51;83.95
65756;BME280;69208;47.502;18.940;2023-09-30T03:19:59;98617.69;;;14.52;83.67
65756;BME280;69208;47.502;18.940;2023-09-30T03:21:13;98630.41;;;14.50;83.84
65756;BME280;69208;47.502;18.940;2023-09-30T03:22:17;98627.56;;;14.46;83.00
65756;BME280;69208;47.502;18.940;2023-09-30T03:23:20;98629.31;;;14.51;82.68
65756;BME280;69208;47.502;18.940;2023-09-30T03:24:24;98632.25;;;14.49;82.74
65756;BME280;69208;47.502;18.940;2023-09-30T03:25:27;98627.28;;;14.48;83.14
65756;BME280;69208;47.502;18.940;2023-09-30T03:26:30;98630.09;;;14.51;83.35
65756;BME280;69208;47.502;18.940;2023-09-30T03:27:33;98629.50;;;14.54;82.56
65756;BME280;69208;47.502;18.940;2023-09-30T03:28:37;98630.41;;;14.50;82.60
65756;BME280;69208;47.502;18.940;2023-09-30T03:29:41;98627.75;;;14.50;83.00
65756;BME280;69208;47.502;18.940;2023-09-30T03:30:44;98627.63;;;14.55;82.90
65756;BME280;69208;47.502;18.940;2023-09-30T03:31:48;98633.31;;;14.48;83.04
65756;BME280;69208;47.502;18.940;2023-09-30T03:32:51;98635.03;;;14.44;82.62
65756;BME280;69208;47.502;18.940;2023-09-30T03:33:54;98633.03;;;14.50;82.19
65756;BME280;69208;47.502;18.940;2023-09-30T03:34:58;98624.34;;;14.49;82.27
65756;BME280;69208;47.502;18.940;2023-09-30T03:36:03;98631.16;;;14.50;81.78
65756;BME280;69208;47.502;18.940;2023-09-30T03:37:06;98626.56;;;14.56;81.00
65756;BME280;69208;47.502;18.940;2023-09-30T03:38:10;98633.69;;;14.55;81.50
65756;BME280;69208;47.502;18.940;2023-09-30T03:39:15;98633.38;;;14.57;82.14
65756;BME280;69208;47.502;18.940;2023-09-30T03:40:20;98631.16;;;14.50;82.78
65756;BME280;69208;47.502;18.940;2023-09-30T03:41:30;98625.75;;;14.47;83.44
65756;BME280;69208;47.502;18.940;2023-09-30T03:42:33;98632.06;;;14.46;83.47
65756;BME280;69208;47.502;18.940;2023-09-30T03:43:36;98628.53;;;14.50;83.35
65756;BME280;69208;47.502;18.940;2023-09-30T03:44:43;98631.00;;;14.47;83.59
65756;BME280;69208;47.502;18.940;2023-09-30T03:45:46;98640.75;;;14.46;83.53
65756;BME280;69208;47.502;18.940;2023-09-30T03:46:51;98631.31;;;14.45;83.32
65756;BME280;69208;47.502;18.940;2023-09-30T03:47:55;98637.22;;;14.51;82.07
65756;BME280;69208;47.502;18.940;2023-09-30T03:48:58;98631.94;;;14.51;81.12
65756;BME280;69208;47.502;18.940;2023-09-30T03:50:02;98638.31;;;14.50;80.32
65756;BME280;69208;47.502;18.940;2023-09-30T03:51:10;98637.06;;;14.47;80.00
65756;BME280;69208;47.502;18.940;2023-09-30T03:52:17;98630.81;;;14.43;79.71
65756;BME280;69208;47.502;18.940;2023-09-30T03:53:20;98636.09;;;14.43;80.08
65756;BME280;69208;47.502;18.940;2023-09-30T03:54:24;98626.34;;;14.44;80.13
65756;BME280;69208;47.502;18.940;2023-09-30T03:55:27;98627.47;;;14.51;79.55
65756;BME280;69208;47.502;18.940;2023-09-30T03:56:30;98625.31;;;14.53;79.10
65756;BME280;69208;47.502;18.940;2023-09-30T03:57:33;98632.59;;;14.56;79.19
65756;BME280;69208;47.502;18.940;2023-09-30T03:58:36;98627.75;;;14.50;79.19
65756;BME280;69208;47.502;18.940;2023-09-30T03:59:40;98627.28;;;14.48;79.20
65756;BME280;69208;47.502;18.940;2023-09-30T04:00:44;98629.75;;;14.44;79.17
65756;BME280;69208;47.502;18.940;2023-09-30T04:01:47;98626.78;;;14.37;79.71
65756;BME280;69208;47.502;18.940;2023-09-30T04:02:51;98634.53;;;14.42;79.64
65756;BME280;69208;47.502;18.940;2023-09-30T04:03:57;98627.13;;;14.44;79.52
65756;BME280;69208;47.502;18.940;2023-09-30T04:05:01;98634.09;;;14.49;79.79
65756;BME280;69208;47.502;18.940;2023-09-30T04:06:07;98634.75;;;14.54;80.38
65756;BME280;69208;47.502;18.940;2023-09-30T04:07:10;98630.69;;;14.48;81.28
65756;BME280;69208;47.502;18.940;2023-09-30T04:08:13;98625.12;;;14.50;81.61
65756;BME280;69208;47.502;18.940;2023-09-30T04:09:18;98628.81;;;14.49;81.52
65756;BME280;69208;47.502;18.940;2023-09-30T04:10:21;98621.22;;;14.47;81.53
65756;BME280;69208;47.502;18.940;2023-09-30T04:11:25;98641.97;;;14.40;81.91
65756;BME280;69208;47.502;18.940;2023-09-30T04:12:28;98634.88;;;14.41;82.00
65756;BME280;69208;47.502;18.940;2023-09-30T04:13:31;98637.03;;;14.39;82.12
65756;BME280;69208;47.502;18.940;2023-09-30T04:14:35;98632.03;;;14.37;82.24
65756;BME280;69208;47.502;18.940;2023-09-30T04:15:38;98637.16;;;14.33;82.16
65756;BME280;69208;47.502;18.940;2023-09-30T04:16:42;98628.78;;;14.40;81.66
65756;BME280;69208;47.502;18.940;2023-09-30T04:17:45;98633.00;;;14.41;81.59
65756;BME280;69208;47.502;18.940;2023-09-30T04:18:48;98633.16;;;14.45;81.41
65756;BME280;69208;47.502;18.940;2023-09-30T04:19:53;98628.50;;;14.42;81.60
65756;BME280;69208;47.502;18.940;2023-09-30T04:20:56;98637.50;;;14.41;81.83
65756;BME280;69208;47.502;18.940;2023-09-30T04:21:59;98631.09;;;14.33;82.18
65756;BME280;69208;47.502;18.940;2023-09-30T04:23:02;98631.28;;;14.37;82.19
65756;BME280;69208;47.502;18.940;2023-09-30T04:24:07;98632.03;;;14.37;82.10
65756;BME280;69208;47.502;18.940;2023-09-30T04:25:10;98633.62;;;14.38;81.93
65756;BME280;69208;47.502;18.940;2023-09-30T04:26:13;98630.00;;;14.34;82.21
65756;BME280;69208;47.502;18.940;2023-09-30T04:27:16;98634.84;;;14.32;82.34
65756;BME280;69208;47.502;18.940;2023-09-30T04:28:19;98635.13;;;14.30;82.58
65756;BME280;69208;47.502;18.940;2023-09-30T04:29:23;98636.37;;;14.33;82.46
65756;BME280;69208;47.502;18.940;2023-09-30T04:30:26;98633.44;;;14.34;82.15
65756;BME280;69208;47.502;18.940;2023-09-30T04:31:30;98636.97;;;14.30;82.79
65756;BME280;69208;47.502;18.940;2023-09-30T04:32:33;98635.13;;;14.30;83.03
65756;BME280;69208;47.502;18.940;2023-09-30T04:33:36;98640.25;;;14.36;82.95
65756;BME280;69208;47.502;18.940;2023-09-30T04:34:39;98636.81;;;14.26;83.53
65756;BME280;69208;47.502;18.940;2023-09-30T04:35:43;98645.50;;;14.27;83.14
65756;BME280;69208;47.502;18.940;2023-09-30T04:36:47;98636.97;;;14.30;83.06
65756;BME280;69208;47.502;18.940;2023-09-30T04:37:50;98638.38;;;14.27;82.96
65756;BME280;69208;47.502;18.940;2023-09-30T04:38:53;98636.06;;;14.26;83.48
65756;BME280;69208;47.502;18.940;2023-09-30T04:39:56;98643.16;;;14.25;83.71
65756;BME280;69208;47.502;18.940;2023-09-30T04:41:01;98645.97;;;14.29;83.50
65756;BME280;69208;47.502;18.940;2023-09-30T04:42:04;98645.37;;;14.32;83.60
65756;BME280;69208;47.502;18.940;2023-09-30T04:43:07;98644.41;;;14.28;83.77
65756;BME280;69208;47.502;18.940;2023-09-30T04:44:10;98645.78;;;14.25;83.94
65756;BME280;69208;47.502;18.940;2023-09-30T04:45:14;98642.09;;;14.26;83.95
65756;BME280;69208;47.502;18.940;2023-09-30T04:46:23;98651.25;;;14.29;83.98
65756;BME280;69208;47.502;18.940;2023-09-30T04:47:26;98642.53;;;14.28;84.01
65756;BME280;69208;47.502;18.940;2023-09-30T04:48:29;98639.91;;;14.28;84.13
65756;BME280;69208;47.502;18.940;2023-09-30T04:49:32;98635.28;;;14.34;83.87
65756;BME280;69208;47.502;18.940;2023-09-30T04:50:35;98638.25;;;14.32;84.18
65756;BME280;69208;47.502;18.940;2023-09-30T04:51:38;98642.75;;;14.32;84.22
65756;BME280;69208;47.502;18.940;2023-09-30T04:52:42;98645.66;;;14.30;84.26
65756;BME280;69208;47.502;18.940;2023-09-30T04:53:47;98641.16;;;14.31;84.24
65756;BME280;69208;47.502;18.940;2023-09-30T04:54:50;98638.50;;;14.22;83.28
65756;BME280;69208;47.502;18.940;2023-09-30T04:55:53;98642.53;;;14.28;83.28
65756;BME280;69208;47.502;18.940;2023-09-30T04:56:56;98644.87;;;14.30;84.31
65756;BME280;69208;47.502;18.940;2023-09-30T04:57:58;98643.03;;;14.30;84.37
65756;BME280;69208;47.502;18.940;2023-09-30T04:59:02;98639.63;;;14.30;84.85
65756;BME280;69208;47.502;18.940;2023-09-30T05:00:07;98646.44;;;14.31;85.06
65756;BME280;69208;47.502;18.940;2023-09-30T05:01:14;98648.94;;;14.36;84.69
65756;BME280;69208;47.502;18.940;2023-09-30T05:02:17;98647.84;;;14.37;84.33
65756;BME280;69208;47.502;18.940;2023-09-30T05:03:20;98658.72;;;14.36;84.01
65756;BME280;69208;47.502;18.940;2023-09-30T05:04:23;98647.84;;;14.37;84.08
65756;BME280;69208;47.502;18.940;2023-09-30T05:05:27;98652.06;;;14.38;84.25
65756;BME280;69208;47.502;18.940;2023-09-30T05:06:32;98653.78;;;14.43;84.32
65756;BME280;69208;47.502;18.940;2023-09-30T05:07:35;98655.50;;;14.47;83.93
65756;BME280;69208;47.502;18.940;2023-09-30T05:08:38;98660.91;;;14.42;84.39
65756;BME280;69208;47.502;18.940;2023-09-30T05:09:41;98658.44;;;14.46;84.04
65756;BME280;69208;47.502;18.940;2023-09-30T05:10:45;98655.19;;;14.49;82.99
65756;BME280;69208;47.502;18.940;2023-09-30T05:11:48;98658.81;;;14.53;82.88
65756;BME280;69208;47.502;18.940;2023-09-30T05:12:53;98657.59;;;14.59;81.89
65756;BME280;69208;47.502;18.940;2023-09-30T05:13:57;98675.09;;;14.55;81.54
65756;BME280;69208;47.502;18.940;2023-09-30T05:15:00;98662.25;;;14.62;81.72
65756;BME280;69208;47.502;18.940;2023-09-30T05:16:05;98661.19;;;14.72;81.95
65756;BME280;69208;47.502;18.940;2023-09-30T05:17:10;98657.44;;;14.73;82.81
65756;BME280;69208;47.502;18.940;2023-09-30T05:18:14;98662.16;;;14.76;83.59
65756;BME280;69208;47.502;18.940;2023-09-30T05:19:17;98656.69;;;14.81;83.60
65756;BME280;69208;47.502;18.940;2023-09-30T05:20:20;98660.91;;;14.82;84.26
65756;BME280;69208;47.502;18.940;2023-09-30T05:21:23;98662.63;;;14.87;84.54
65756;BME280;69208;47.502;18.940;2023-09-30T05:22:26;98657.34;;;14.95;83.99
65756;BME280;69208;47.502;18.940;2023-09-30T05:23:29;98665.28;;;14.95;83.92
65756;BME280;69208;47.502;18.940;2023-09-30T05:24:33;98662.97;;;15.02;83.80
65756;BME280;69208;47.502;18.940;2023-09-30T05:25:38;98663.44;;;15.13;83.85
65756;BME280;69208;47.502;18.940;2023-09-30T05:26:41;98663.59;;;15.17;83.98
65756;BME280;69208;47.502;18.940;2023-09-30T05:27:44;98660.66;;;15.18;83.99
65756;BME280;69208;47.502;18.940;2023-09-30T05:28:47;98660.03;;;15.21;83.89
65756;BME280;69208;47.502;18.940;2023-09-30T05:29:50;98663.28;;;15.27;83.80
65756;BME280;69208;47.502;18.940;2023-09-30T05:30:53;98662.97;;;15.37;83.38
65756;BME280;69208;47.502;18.940;2023-09-30T05:31:56;98668.88;;;15.34;83.82
65756;BME280;69208;47.502;18.940;2023-09-30T05:33:00;98662.22;;;15.37;83.72